Aérodrome :
LOGIN :

S'inscrire | Disclaimer

   EN    FR    IT 

 










Légende :    VFR   VFR Marginal   IFR   IFR Intensif   IFR Très Intensif
Visi : 
Plafond : 
>= 8 km
>= 3000ft
5 à 8 km
1000 à 3000 ft
1500m à 5 km
500 à 1000 ft
800 à 1500m
200 à 500 ft
< 800m
< 200 ft
Symboles :   Orages  Brouillard  Fortes neiges  Fortes précipitations  Vent > 20 kt
SIGMETs :   Divers  Orages  Givrage  Turbulence  Onde Orograph.  Cendres Volcan.







- Altitude de l'aérodrome : 33 ft
- Code IATA : MHZ


EGUN - RAF Mildenhall

DERNIER METAR :
  • 140356Z AUTO 24013KT 9999 BKN026 OVC035 03/03 A2922 RMK AO2 SLP898 T00310031 $

METARs EXPIRÉS :
  • 140301Z AUTO 23013KT 9999 FEW024 BKN039 OVC050 03/03 A2922 RMK AO2 SLP898 $
  • 140156Z AUTO 24007KT 9999 FEW041 02/02 A2922 RMK AO2 SLP898 T00150015 $

TAF TAF EGUN
Valide du 14 à 04h jusqu'au 15 à 10h UTC


140406Z 1404/1510 23012G20KT 8000 -SHRA BKN030 620305 QNH2915INS
TEMPO 1413/1416 5000 TSRA BKN020CB
BECMG 1417/1418 23009KT 9999 NSW BKN020 620209 QNH2912INS
BECMG 1420/1421 22009KT 9999 BKN010 620109 QNH2910INS
BECMG 1502/1503 28009KT 8000 -SHRA BKN004 620808 QNH2912INS
BECMG 1507/1508 32015G20KT 9999 NSW BKN010 620808 QNH2922INS TX08/1413Z TN01/1404Z
Pas de NOTAMs connus pour ce terrain.
1 SIGMET publié pour la FIR London (EGTT) :
 
Turbulence forte
EGTT SIGMET 01 VALID 140300/140700 EGRR
EGTT LONDON FIR SEV TURB FCST WI N5000 W00015 - N5000 W00200 - N4850 W00800 - N5100 W00800 - N5220 W00530 - N5330 W00530 - N5300 W00330 - N5100 W00330 - N5040 E00128 - N5000 W00015 SFC/FL060 STNR WKN=



MET'MAP, la Météo Aéronautique d'un coup d'oeil ! - Copyright ORBIFLY Décembre 2007 - Disclaimer

ORBIFLY MET'MAP TEAM :

Programmation & Développement : Alexandra Zaïnal
Conception & Développement : Baudouin d'Aumeries
Co-Programmation & Développement : Marc-Olivier Méhu
Soutien technique & logistique : Manuel Goepfert

Contact : metmap@orbifly.com




SOURCES & CREDITS :

   NOAA